Latest Weather Observations for Bulman

IDD60801

Issued at 6:31 am CST Wednesday 25 January 2017 (issued every 30 minutes, with the page automatically refreshed every 10 minutes)

About weather observations | Map of weather stations | Latest weather observations for NT | Other Formats
Station Details ID: 014627 Name: BULMAN Lat: -13.67 Lon: 134.34 Height: 103.4 m
Data from the previous 72 hours. | See also: Recent months at Bulman
Date/Time
CST
Temp
°C
App
Temp
°C
Dew
Point
°C
Rel
Hum
%
Delta-T
°C
Wind Press
QNH
hPa
Press
MSL
hPa
Rain since
9am
mm
Dir  Spd
km/h
Gust
km/h
Spd
kts
Gust
kts
25/06:30am 23.9 29.3 23.2 96 0.5 CALM 0 0 0 0 1008.6 1007.8 2.6
25/06:00am 23.8 29.1 23.0 95 0.5 CALM 0 0 0 0 1008.3 1007.5 2.6
25/05:30am 24.0 29.3 23.1 95 0.6 CALM 0 0 0 0 1008.0 1007.2 2.6
25/05:00am 24.1 29.4 23.1 94 0.7 CALM 0 0 0 0 1007.8 1007.0 2.6
25/04:30am 24.2 28.3 23.0 93 0.8 N 6 6 3 3 1007.6 1006.8 2.6
25/04:00am 24.3 29.2 23.1 93 0.8 NNW 2 6 1 3 1007.7 1006.9 2.6
25/03:30am 24.3 29.0 23.4 95 0.6 NNW 4 7 2 4 1007.8 1007.0 2.6
25/03:00am 24.3 29.8 23.4 95 0.6 CALM 0 0 0 0 1007.6 1006.8 2.6
25/02:30am 24.4 29.1 23.4 94 0.7 NNW 4 6 2 3 1007.5 1006.7 2.6
25/02:00am 24.6 30.1 23.4 93 0.8 CALM 0 0 0 0 1007.8 1007.0 2.6
25/01:30am 24.5 29.9 23.3 93 0.8 CALM 0 0 0 0 1008.0 1007.2 2.6
25/01:00am 24.6 29.2 23.2 92 1.0 NNW 4 7 2 4 1008.3 1007.5 2.6
25/12:30am 24.7 30.1 23.3 92 1.0 CALM 0 0 0 0 1008.4 1007.6 2.6
25/12:00am 24.8 29.3 21.5 82 2.2 CALM 0 0 0 0 1008.6 1007.8 2.6
 
Date/Time
CST
Temp
°C
App
Temp
°C
Dew
Point
°C
Rel
Hum
%
Delta-T
°C
Wind Press
QNH
hPa
Press
MSL
hPa
Rain since
9am
mm
Dir  Spd
km/h
Gust
km/h
Spd
kts
Gust
kts
24/11:30pm 24.8 29.6 22.1 85 1.8 CALM 0 0 0 0 1008.6 1007.8 2.6
24/11:00pm 24.8 29.2 23.4 92 1.0 N 6 6 3 3 1008.9 1008.1 2.6
24/10:30pm 24.9 28.1 21.2 80 2.5 N 6 7 3 4 1008.7 1007.9 2.6
24/10:00pm 24.9 29.2 21.2 80 2.4 CALM 0 0 0 0 1008.6 1007.8 2.6
24/09:30pm 24.8 28.6 20.9 79 2.6 N 2 7 1 4 1008.4 1007.6 2.6
24/09:00pm 24.9 28.7 22.8 88 1.4 NNW 7 11 4 6 1008.4 1007.6 2.6
24/08:30pm 25.5 28.0 20.3 73 3.4 NW 7 9 4 5 1008.0 1007.2 2.6
24/08:00pm 26.0 28.7 22.9 83 2.1 N 13 24 7 13 1007.6 1006.8 2.4
24/07:30pm 27.9 32.7 24.5 82 2.4 NNW 7 11 4 6 1006.9 1006.1 2.2
24/07:00pm 27.9 32.9 24.5 82 2.4 N 6 9 3 5 1005.8 1005.1 2.2
24/06:30pm 28.2 33.3 24.6 81 2.5 NNE 6 7 3 4 1005.4 1004.7 2.2
24/06:00pm 28.3 33.6 24.9 82 2.4 NNE 6 9 3 5 1004.9 1004.1 2.2
24/05:30pm 28.1 32.5 24.5 81 2.5 N 9 13 5 7 1004.5 1003.7 2.2
24/05:00pm 28.9 33.3 24.5 77 3.1 N 9 17 5 9 1004.1 1003.3 2.2
24/04:30pm 29.0 32.8 24.1 75 3.4 NNE 11 17 6 9 1004.4 1003.6 2.2
24/04:00pm 28.3 32.6 24.9 82 2.4 N 11 17 6 9 1004.5 1003.7 2.2
24/03:30pm 26.8 31.3 25.2 91 1.1 NNW 11 15 6 8 1004.7 1003.9 2.2
24/03:00pm 30.5 33.4 23.9 68 4.6 NNW 15 24 8 13 1004.4 1003.6 0.0
24/02:30pm 31.3 34.3 23.4 63 5.5 NNW 13 20 7 11 1004.7 1003.9 0.0
24/02:00pm 31.3 34.3 23.4 63 5.5 N 13 26 7 14 1005.0 1004.2 0.0
24/01:30pm 30.9 33.0 22.5 61 5.8 NNW 15 22 8 12 1005.4 1004.7 0.0
24/01:00pm 30.5 33.4 23.9 68 4.6 NNW 15 24 8 13 1005.9 1005.2 0.0
24/12:30pm 29.9 33.2 24.5 73 3.8 NNW 15 24 8 13 1006.7 1005.9 0.0
24/12:00pm 30.0 34.6 24.2 71 4.1 NW 7 15 4 8 1006.9 1006.1 0.0
24/11:30am 27.9 29.8 22.8 74 3.5 NNW 17 26 9 14 1007.5 1006.7 0.0
24/11:00am 28.6 31.6 23.3 73 3.6 NNW 13 19 7 10 1007.7 1006.9 0.0
24/10:30am 28.3 32.1 24.1 78 2.9 NNW 11 19 6 10 1007.8 1007.0 0.0
24/10:00am 27.1 30.0 23.1 79 2.7 WNW 13 20 7 11 1008.1 1007.3 0.0
24/09:30am 26.8 30.2 23.3 81 2.4 NW 11 17 6 9 1008.1 1007.3 0.0
24/09:00am 26.3 29.4 23.6 85 1.9 NW 13 19 7 10 1007.8 1007.0 58.6
24/08:57am 26.1 28.9 23.0 83 2.1 WNW 13 19 7 10 1007.8 1007.0 58.6
24/08:55am 18.6 18.4 15.8 84 1.7 WNW 11 19 6 10 1007.7 1006.9 58.6
24/08:52am 12.6 10.5 9.8 83 1.4 WNW 11 17 6 9 1007.6 1006.8 58.6
24/08:51am 7.5 4.7 5.0 84 1.1 WNW 9 17 5 9 1007.6 1006.8 58.6
24/08:50am 0.7 -3.2 -1.7 84 0.9 WNW 9 17 5 9 1007.6 1006.8 58.6
24/08:45am -5.0 -9.5 -7.1 85 0.4 WNW 9 13 5 7 1007.5 1006.7 58.6
24/08:44am -10.5 -15.4 -12.4 86 0.1 WNW 9 13 5 7 1007.5 1006.7 58.6
24/08:39am -18.2 -23.1 -20.0 86 0.0 WNW 7 13 4 7 1007.4 1006.6 58.6
24/08:38am -9.2 -13.7 -11.2 85 0.2 WNW 7 13 4 7 1007.4 1006.6 58.6
24/08:30am 25.6 29.8 23.5 88 1.4 W 7 11 4 6 1007.3 1006.5 58.6
24/08:00am 25.0 29.2 23.4 91 1.1 WNW 7 11 4 6 1007.0 1006.2 58.6
24/07:44am 24.7 28.9 23.1 91 1.1 W 6 7 3 4 1007.0 1006.2 58.6
24/07:42am -26.3 -31.2 -27.1 93 -0.2 WNW 6 7 3 4 1007.0 1006.2 58.6
24/07:41am -35.8 -40.9 -36.5 93 -0.1 WNW 6 9 3 5 1007.0 1006.2 58.6
24/07:40am -49.2 -54.3 -49.7 94 0.0 WNW 6 9 3 5 1007.0 1006.2 58.6
24/07:39am -43.9 -49.0 -44.5 94 -0.1 WNW 6 9 3 5 1007.0 1006.2 58.6
24/07:30am 24.5 28.8 23.3 93 0.8 WNW 6 9 3 5 1007.0 1006.2 58.6
24/07:00am 24.2 28.5 23.3 95 0.6 W 6 9 3 5 1006.7 1005.9 58.6
24/06:30am 24.0 28.3 23.3 96 0.5 W 6 11 3 6 1006.0 1005.3 58.6
24/06:00am 23.9 28.1 23.2 96 0.5 WNW 6 7 3 4 1005.5 1004.8 58.6
24/05:30am 24.0 27.4 23.3 96 0.5 WNW 11 17 6 9 1005.0 1004.2 58.4
24/05:00am 24.1 28.3 23.4 96 0.5 NW 7 11 4 6 1004.6 1003.8 57.8
24/04:30am 24.2 28.0 23.5 96 0.5 NNW 9 13 5 7 1004.4 1003.6 57.8
24/04:00am 24.3 28.6 23.6 96 0.5 NNW 7 9 4 5 1004.1 1003.3 57.4
24/03:30am 24.2 28.6 23.5 96 0.5 N 6 11 3 6 1004.0 1003.2 57.4
24/03:00am 24.2 28.6 23.5 96 0.5 N 6 7 3 4 1004.3 1003.5 57.4
24/02:30am 24.2 28.6 23.5 96 0.5 N 6 9 3 5 1004.6 1003.8 57.4
24/02:00am 24.2 29.0 23.5 96 0.5 N 4 7 2 4 1005.1 1004.3 57.4
24/01:30am 24.3 29.2 23.6 96 0.5 N 4 7 2 4 1005.8 1005.1 57.4
24/01:00am 24.3 28.8 23.6 96 0.5 N 6 7 3 4 1006.2 1005.5 57.4
24/12:30am 24.4 28.9 23.7 96 0.5 N 6 9 3 5 1006.7 1005.9 57.4
24/12:00am 24.3 28.8 23.6 96 0.5 N 6 7 3 4 1007.1 1006.3 57.4
 
Date/Time
CST
Temp
°C
App
Temp
°C
Dew
Point
°C
Rel
Hum
%
Delta-T
°C
Wind Press
QNH
hPa
Press
MSL
hPa
Rain since
9am
mm
Dir  Spd
km/h
Gust
km/h
Spd
kts
Gust
kts
23/11:30pm 24.5 29.2 24.0 97 0.3 NNW 6 9 3 5 1007.2 1006.4 57.4
23/11:00pm 24.5 30.3 24.0 97 0.3 CALM 0 0 0 0 1007.3 1006.5 57.4
23/10:30pm 24.4 28.9 23.9 97 0.3 NW 7 9 4 5 1007.4 1006.6 57.4
23/10:00pm 24.1 29.0 23.6 97 0.3 WNW 4 6 2 3 1007.3 1006.5 57.2
23/09:30pm 24.0 28.3 23.3 96 0.5 NNW 6 7 3 4 1007.0 1006.2 56.2
23/09:00pm 24.1 29.6 23.4 96 0.5 CALM 0 0 0 0 1006.9 1006.1 55.2
23/08:30pm 24.1 29.2 23.4 96 0.5 WNW 2 7 1 4 1007.0 1006.2 54.0
23/08:00pm 24.1 28.0 23.6 97 0.3 NW 9 13 5 7 1006.6 1005.8 52.6
23/07:30pm 24.0 28.1 23.3 96 0.5 NW 7 9 4 5 1006.2 1005.5 52.0
23/07:00pm 23.9 27.8 23.0 95 0.6 WNW 7 11 4 6 1006.1 1005.4 50.6
23/06:30pm 24.2 28.6 23.5 96 0.5 WNW 6 7 3 4 1005.6 1004.9 47.2
23/06:00pm 24.1 27.5 23.4 96 0.5 W 11 19 6 10 1005.1 1004.3 42.4
23/05:30pm 24.4 28.7 23.7 96 0.5 WSW 7 11 4 6 1004.9 1004.1 30.8
23/05:00pm 24.6 28.5 23.6 94 0.7 NW 9 13 5 7 1004.1 1003.3 27.0
23/04:30pm 25.1 29.0 24.2 95 0.6 WNW 11 17 6 9 1003.7 1002.9 27.0
23/04:00pm 25.2 28.9 24.5 96 0.5 NNW 13 20 7 11 1003.3 1002.5 27.0
23/03:30pm 25.6 29.8 24.7 95 0.6 NNW 11 17 6 9 1003.9 1003.1 22.0
23/03:00pm 25.8 30.1 24.2 91 1.1 E 9 13 5 7 1003.9 1003.1 16.4
23/02:30pm 29.6 34.7 24.7 75 3.4 NW 6 9 3 5 1003.8 1003.0 0.2
23/02:00pm 30.5 35.1 24.2 69 4.4 NNW 7 15 4 8 1004.1 1003.3 0.2
23/01:30pm 30.1 34.2 24.0 70 4.3 WSW 9 15 5 8 1004.5 1003.7 0.2
23/01:00pm 30.5 33.7 23.7 67 4.7 WSW 13 20 7 11 1005.1 1004.3 0.2
23/12:30pm 30.3 33.5 23.7 68 4.6 SSW 13 24 7 13 1005.6 1004.9 0.2
23/12:00pm 29.6 33.1 23.5 69 4.2 W 11 19 6 10 1006.1 1005.4 0.2
23/11:30am 29.1 32.9 24.0 74 3.6 WSW 11 20 6 11 1006.7 1005.9 0.2
23/11:12am 29.2 32.9 23.9 73 3.7 W 11 19 6 10 1007.0 1006.2 0.2
23/11:11am -47.4 -53.5 -49.8 76 0.0 W 11 17 6 9 1007.1 1006.3 0.2
23/11:00am 28.9 32.3 24.0 75 3.4 WSW 13 17 7 9 1007.3 1006.5 0.2
23/10:30am 27.8 31.4 23.8 79 2.8 W 11 20 6 11 1007.5 1006.7 0.0
23/10:00am 27.3 31.1 24.0 82 2.3 W 11 17 6 9 1007.8 1007.0 0.0
23/09:30am 26.6 31.1 23.9 85 1.9 W 7 13 4 7 1007.9 1007.1 0.0
23/09:00am 25.7 30.0 23.7 89 1.4 W 7 9 4 5 1007.5 1006.7 35.8
23/08:30am 24.6 29.0 23.4 93 0.8 NNW 6 9 3 5 1007.4 1006.6 35.8
23/08:00am 23.9 29.2 23.0 95 0.6 CALM 0 4 0 2 1007.6 1006.8 35.8
23/07:30am 23.6 27.7 22.9 96 0.5 N 6 7 3 4 1007.5 1006.7 35.8
23/07:00am 23.4 28.6 22.9 97 0.3 CALM 0 0 0 0 1006.8 1006.0 35.8
23/06:30am 23.1 28.0 22.4 96 0.5 CALM 0 0 0 0 1006.4 1005.6 35.8
23/06:00am 23.2 28.2 22.5 96 0.5 CALM 0 0 0 0 1005.8 1005.1 35.6
23/05:30am 23.2 28.3 22.7 97 0.3 CALM 0 0 0 0 1005.3 1004.6 35.6
23/05:00am 23.1 28.0 22.4 96 0.5 CALM 0 0 0 0 1005.3 1004.6 35.6
23/04:30am 23.1 28.0 22.4 96 0.5 CALM 0 0 0 0 1005.4 1004.7 35.6
23/04:00am 23.1 27.3 22.4 96 0.5 NNW 4 7 2 4 1005.5 1004.8 35.6
23/03:30am 23.1 27.3 22.4 96 0.5 N 4 7 2 4 1005.6 1004.9 35.6
23/03:00am 23.2 28.1 22.4 95 0.5 CALM 0 0 0 0 1005.9 1005.2 35.6
23/02:30am 23.3 27.2 22.5 95 0.5 NW 6 9 3 5 1006.0 1005.3 35.6
23/02:00am 23.5 27.5 22.7 95 0.5 NW 6 9 3 5 1006.0 1005.3 35.6
23/01:30am 23.7 27.8 22.9 95 0.5 NNW 6 9 3 5 1006.4 1005.6 35.6
23/01:00am 23.8 27.8 22.8 94 0.7 WNW 6 9 3 5 1006.9 1006.1 35.6
23/12:30am 23.9 29.2 23.0 95 0.6 CALM 0 0 0 0 1006.7 1005.9 35.6
23/12:00am 23.9 29.1 22.9 94 0.7 CALM 0 0 0 0 1006.8 1006.0 35.6
 
Date/Time
CST
Temp
°C
App
Temp
°C
Dew
Point
°C
Rel
Hum
%
Delta-T
°C
Wind Press
QNH
hPa
Press
MSL
hPa
Rain since
9am
mm
Dir  Spd
km/h
Gust
km/h
Spd
kts
Gust
kts
22/11:30pm 24.1 29.0 23.1 94 0.7 SW 2 6 1 3 1007.1 1006.3 35.6
22/11:00pm 24.5 29.7 23.6 95 0.6 SW 2 6 1 3 1007.2 1006.4 35.6
22/10:30pm 24.5 29.4 23.6 95 0.6 WSW 4 9 2 5 1007.5 1006.7 35.6
22/10:00pm 24.8 29.0 24.1 96 0.5 W 9 13 5 7 1008.1 1007.3 35.6
22/09:30pm 24.8 28.6 24.1 96 0.5 NW 11 17 6 9 1008.2 1007.4 35.2
22/09:00pm 24.8 29.0 24.1 96 0.5 NNW 9 13 5 7 1008.0 1007.2 33.8
22/08:30pm 24.7 29.2 24.0 96 0.5 N 7 13 4 7 1008.0 1007.2 31.8
22/08:00pm 24.8 28.6 24.1 96 0.5 NNE 11 20 6 11 1007.9 1007.1 29.2
22/07:30pm 25.6 30.1 24.6 94 0.7 ESE 9 17 5 9 1008.0 1007.2 11.2
22/07:00pm 25.9 30.6 25.0 95 0.6 N 9 17 5 9 1006.9 1006.1 9.8
22/06:30pm 25.9 29.8 24.9 94 0.7 NNW 13 22 7 12 1006.4 1005.6 9.8
22/06:00pm 26.3 30.9 25.3 94 0.7 NNW 11 20 6 11 1005.9 1005.2 9.8
22/05:30pm 28.0 33.1 25.0 84 2.1 NNE 7 15 4 8 1005.6 1004.9 0.4
22/05:00pm 28.1 32.1 25.1 84 2.1 NNW 13 19 7 10 1005.0 1004.2 0.4
22/04:30pm 28.3 33.0 24.9 82 2.4 NNW 9 15 5 8 1004.8 1004.0 0.4
22/04:00pm 28.9 33.5 25.3 81 2.5 NNW 11 15 6 8 1004.3 1003.5 0.4
22/03:30pm 29.8 33.6 24.7 74 3.6 NNW 13 22 7 12 1004.5 1003.7 0.4
22/03:00pm 32.7 36.6 23.6 58 6.4 SSW 9 15 5 8 1004.7 1003.9 0.4
22/02:30pm 32.7 36.1 23.3 57 6.5 SSW 11 20 6 11 1004.8 1004.0 0.4
22/02:00pm 33.3 37.5 24.7 60 6.1 SSW 11 20 6 11 1005.2 1004.5 0.4
22/01:30pm 30.3 35.1 25.1 73 3.7 S 9 17 5 9 1005.7 1005.0 0.4
22/01:00pm 32.6 35.7 23.5 58 6.3 SSW 13 22 7 12 1006.8 1006.0 0.0
22/12:30pm 32.6 36.3 24.6 62 5.7 S 13 20 7 11 1007.5 1006.7 0.0
22/12:00pm 31.2 34.2 23.3 63 5.5 SSW 13 24 7 13 1008.1 1007.3 0.0
22/11:30am 31.4 35.5 24.0 65 5.2 WSW 9 15 5 8 1008.6 1007.8 0.0
22/11:00am 30.8 33.9 23.5 65 5.1 SW 13 20 7 11 1009.0 1008.2 0.0
22/10:30am 30.4 33.4 23.3 66 4.9 WSW 13 26 7 14 1009.2 1008.4 0.0
22/10:00am 30.1 33.9 24.0 70 4.2 W 11 19 6 10 1009.3 1008.5 0.0
22/09:30am 28.9 32.3 24.0 75 3.4 W 13 20 7 11 1009.4 1008.6 0.0
22/09:00am 28.2 32.3 23.3 75 3.4 SW 7 13 4 7 1009.6 1008.8 25.8
22/08:30am 27.5 31.3 23.5 79 2.8 SW 9 17 5 9 1009.4 1008.6 25.8
22/08:00am 26.6 30.8 23.5 83 2.1 SW 7 13 4 7 1009.0 1008.2 25.8
22/07:30am 25.3 30.9 23.5 90 1.2 CALM 0 0 0 0 1008.8 1008.0 25.8
22/07:00am 24.3 29.6 23.1 93 0.8 CALM 0 0 0 0 1008.7 1007.9 25.8

Other Formats:

Comma delimited format used in spreadsheet applications
http://www.bom.gov.au/fwo/IDD60801/IDD60801.94143.axf

JavaScript Object Notation format (JSON) in row-major order
http://www.bom.gov.au/fwo/IDD60801/IDD60801.94143.json